createdAt,value
2018-01-12T13:35:55.482Z,1013.2902
2018-01-12T13:36:55.297Z,1013.3192
2018-01-12T13:37:55.291Z,1013.3865
2018-01-12T13:38:55.289Z,1013.3665
2018-01-12T13:39:55.290Z,1013.4192
2018-01-12T13:40:55.292Z,1013.3823
2018-01-12T13:41:55.633Z,1013.4041
2018-01-12T13:42:55.296Z,1013.337
2018-01-12T13:43:55.290Z,1013.3843
2018-01-12T13:44:55.291Z,1013.3947
2018-01-12T13:45:55.300Z,1013.4148
2018-01-12T13:46:55.297Z,1013.442
2018-01-12T13:47:55.334Z,1013.4755
2018-01-12T13:48:55.300Z,1013.415
2018-01-12T13:49:55.298Z,1013.5417
2018-01-12T13:50:55.297Z,1013.5078
2018-01-12T13:51:55.311Z,1013.4489
2018-01-12T13:52:55.299Z,1013.4707
2018-01-12T13:53:55.481Z,1013.4403
2018-01-12T13:54:55.348Z,1013.4943
2018-01-12T13:55:55.303Z,1013.5132
2018-01-12T13:56:55.311Z,1013.4727
2018-01-12T13:57:55.313Z,1013.4592
2018-01-12T13:58:55.306Z,1013.5567
2018-01-12T13:59:55.330Z,1013.5112
2018-01-12T14:00:55.338Z,1013.5759
2018-01-12T14:01:55.304Z,1013.6097
2018-01-12T14:02:55.388Z,1013.6198
2018-01-12T14:03:55.308Z,1013.5996
2018-01-12T14:04:55.311Z,1013.6046
2018-01-12T14:05:55.726Z,1013.6555
2018-01-12T14:06:55.313Z,1013.6065
2018-01-12T14:07:55.321Z,1013.588
2018-01-12T14:08:55.376Z,1013.5945
2018-01-12T14:09:55.335Z,1013.5845
2018-01-12T14:10:55.312Z,1013.6368
2018-01-12T14:11:55.347Z,1013.6334
2018-01-12T14:12:55.315Z,1013.6909
2018-01-12T14:13:55.312Z,1013.6707
2018-01-12T14:14:55.325Z,1013.6657
2018-01-12T14:15:55.331Z,1013.6877
2018-01-12T14:16:55.354Z,1013.7448
2018-01-12T14:17:55.319Z,1013.6992
2018-01-12T14:18:55.323Z,1013.7078
2018-01-12T14:19:55.323Z,1013.7078
2018-01-12T14:20:55.338Z,1013.733
2018-01-12T14:21:55.354Z,1013.733
2018-01-12T14:22:55.333Z,1013.7601
2018-01-12T14:23:55.338Z,1013.7196
2018-01-12T14:24:55.327Z,1013.7651
2018-01-12T14:25:55.327Z,1013.7585
2018-01-12T14:26:55.358Z,1013.7399
2018-01-12T14:27:55.332Z,1013.7974
2018-01-12T14:28:55.321Z,1013.7045
2018-01-12T14:29:55.382Z,1013.723
2018-01-12T14:30:55.329Z,1013.7063
2018-01-12T14:31:55.363Z,1013.7467
2018-01-12T14:32:55.336Z,1013.7771
2018-01-12T14:33:55.345Z,1013.7081
2018-01-12T14:34:55.333Z,1013.7821
2018-01-12T14:35:55.333Z,1013.7974
2018-01-12T14:36:55.368Z,1013.8126
2018-01-12T14:37:55.335Z,1013.7551
2018-01-12T14:38:55.340Z,1013.7501
2018-01-12T14:39:55.342Z,1013.8008
2018-01-12T14:40:55.357Z,1013.7738
2018-01-12T14:41:55.527Z,1013.7925
2018-01-12T14:42:55.355Z,1013.7637
2018-01-12T14:43:55.342Z,1013.7589
2018-01-12T14:44:55.357Z,1013.8179
2018-01-12T14:45:55.346Z,1013.7791
2018-01-12T14:46:55.341Z,1013.791
2018-01-12T14:47:55.534Z,1013.8008
2018-01-12T14:48:55.341Z,1013.7874
2018-01-12T14:49:55.343Z,1013.8264
2018-01-12T14:50:55.350Z,1013.8077
2018-01-12T14:51:55.374Z,1013.8348
2018-01-12T14:52:55.344Z,1013.8771
2018-01-12T14:53:55.358Z,1013.8701
2018-01-12T14:54:55.346Z,1013.8956
2018-01-12T14:55:55.350Z,1013.8735
2018-01-12T14:56:55.377Z,1013.8533
2018-01-12T14:57:55.353Z,1013.8856
2018-01-12T14:58:55.351Z,1013.8937
2018-01-12T14:59:55.354Z,1013.8921
2018-01-12T15:00:55.353Z,1013.882
2018-01-12T15:01:55.424Z,1013.9175
2018-01-12T15:02:55.419Z,1013.9395
2018-01-12T15:03:55.364Z,1013.926
2018-01-12T15:04:55.361Z,1013.9158
2018-01-12T15:05:55.360Z,1013.9227
2018-01-12T15:06:55.368Z,1013.9091
2018-01-12T15:07:55.388Z,1013.9716
2018-01-12T15:08:55.369Z,1013.9613
2018-01-12T15:09:55.370Z,1013.9835
2018-01-12T15:10:55.366Z,1013.9565
2018-01-12T15:11:55.367Z,1013.95
2018-01-12T15:12:55.396Z,1013.9567
2018-01-12T15:13:55.365Z,1013.906
2018-01-12T15:14:55.969Z,1013.9446
2018-01-12T15:15:55.372Z,1013.9365
2018-01-12T15:16:55.377Z,1013.9345
2018-01-12T15:17:55.695Z,1013.9431
2018-01-12T15:18:55.571Z,1013.9886
2018-01-12T15:19:55.667Z,1013.9396
2018-01-12T15:20:55.383Z,1013.9685
2018-01-12T15:21:55.372Z,1013.9635
2018-01-12T15:22:55.394Z,1013.9821
2018-01-12T15:23:55.374Z,1013.9905
2018-01-12T15:24:55.383Z,1013.9635
2018-01-12T15:25:55.375Z,1013.9905
2018-01-12T15:26:55.382Z,1013.9987
2018-01-12T15:27:55.404Z,1013.9771
2018-01-12T15:28:55.380Z,1013.9501
2018-01-12T15:29:55.381Z,1014.0224
2018-01-12T15:30:55.371Z,1013.9886
2018-01-12T15:33:07.520Z,1013.9769
2018-01-12T15:34:07.550Z,1013.9802
2018-01-12T15:35:07.465Z,1014.0307
2018-01-12T15:36:07.463Z,1014.0341
2018-01-12T15:37:07.466Z,1014.0426
2018-01-12T15:38:07.491Z,1013.9666
2018-01-12T15:39:07.469Z,1014.0376
2018-01-12T15:40:07.478Z,1014.0038
2018-01-12T15:41:07.476Z,1014.0782
2018-01-12T15:42:07.464Z,1014.0273
2018-01-12T15:43:07.553Z,1014.0476
2018-01-12T15:44:07.469Z,1014.0374
2018-01-12T15:45:07.473Z,1014.0139
2018-01-12T15:46:07.481Z,1013.9902
2018-01-12T15:47:07.469Z,1014.0122
2018-01-12T15:48:07.480Z,1014.0037
2018-01-12T15:49:07.504Z,1013.9937
2018-01-12T15:50:07.475Z,1014.0021
2018-01-12T15:51:07.473Z,1014.0271
2018-01-12T15:52:07.479Z,1013.9933
2018-01-12T15:53:07.513Z,1014.0171
2018-01-12T15:54:07.492Z,1013.9479
2018-01-12T15:55:07.475Z,1013.9595
2018-01-12T17:57:06.252Z,1014.5568
2018-01-12T17:58:06.193Z,1014.558
2018-01-12T17:59:06.191Z,1014.6016
2018-01-12T18:00:06.192Z,1014.5611
2018-01-12T18:01:06.251Z,1014.5758
2018-01-12T18:02:06.214Z,1014.616
2018-01-12T18:03:06.193Z,1014.5843
2018-01-12T18:04:06.195Z,1014.5576
2018-01-12T18:05:06.200Z,1014.5576
2018-01-12T18:06:06.193Z,1014.5344
2018-01-12T18:07:06.233Z,1014.4937
2018-01-12T18:08:06.196Z,1014.5243
2018-01-12T18:09:06.199Z,1014.5309
2018-01-12T18:10:06.197Z,1014.5121
2018-01-12T18:11:06.196Z,1014.5103
2018-01-12T18:12:06.211Z,1014.502
2018-01-12T18:13:06.321Z,1014.5289
2018-01-12T18:14:06.199Z,1014.527
2018-01-12T18:15:06.198Z,1014.4897
2018-01-12T18:16:06.199Z,1014.4729
2018-01-12T18:17:06.203Z,1014.5167
2018-01-12T18:18:06.208Z,1014.486
2018-01-12T18:19:06.231Z,1014.4863
2018-01-12T18:20:06.230Z,1014.5016
2018-01-12T18:21:06.208Z,1014.5507
2018-01-12T18:22:06.207Z,1014.5371
2018-01-12T18:23:06.216Z,1014.554
2018-01-12T18:24:06.209Z,1014.4949
2018-01-12T18:25:06.215Z,1014.5792
2018-01-12T18:26:06.212Z,1014.4743
2018-01-12T18:27:06.208Z,1014.5079
2018-01-12T18:28:06.212Z,1014.5197
2018-01-12T18:29:06.211Z,1014.5773
2018-01-12T18:30:06.249Z,1014.5789
2018-01-12T18:31:06.212Z,1014.5955
2018-01-12T18:32:06.205Z,1014.5248
2018-01-12T18:33:06.215Z,1014.626
2018-01-12T18:34:06.220Z,1014.6141
2018-01-12T18:35:06.226Z,1014.6531
2018-01-12T18:36:06.582Z,1014.582
2018-01-12T18:37:06.226Z,1014.6057
2018-01-12T18:38:06.215Z,1014.6057
2018-01-12T18:39:06.218Z,1014.5701
2018-01-12T18:40:06.221Z,1014.5803
2018-01-12T18:41:06.226Z,1014.6243
2018-01-12T18:42:06.254Z,1014.6984
2018-01-12T18:43:06.229Z,1014.6376
2018-01-12T18:44:06.219Z,1014.6917
2018-01-12T18:45:06.217Z,1014.7001
2018-01-12T18:46:06.239Z,1014.7424
2018-01-12T18:47:06.256Z,1014.7039
2018-01-12T18:48:06.230Z,1014.7159
2018-01-12T18:49:06.230Z,1014.6891
2018-01-12T18:50:06.236Z,1014.7941
2018-01-12T18:51:06.231Z,1014.7971
2018-01-12T18:52:06.266Z,1014.7484
2018-01-12T18:53:06.234Z,1014.7926
2018-01-12T18:54:06.284Z,1014.7468
2018-01-12T18:55:06.388Z,1014.7535
2018-01-12T18:56:06.231Z,1014.7216
2018-01-12T18:57:06.236Z,1014.7671
2018-01-12T18:58:06.257Z,1014.7522
2018-01-12T18:59:06.237Z,1014.7573
2018-01-12T19:00:06.233Z,1014.774
2018-01-12T19:01:06.236Z,1014.8214
2018-01-12T19:02:06.238Z,1014.7759
2018-01-12T19:03:06.264Z,1014.8027
2018-01-12T19:04:06.245Z,1014.8267
2018-01-12T19:05:06.247Z,1014.7674
2018-01-12T19:06:06.238Z,1014.7927
2018-01-12T19:07:06.238Z,1014.8774
2018-01-12T19:08:06.280Z,1014.7877
2018-01-12T19:09:06.244Z,1014.786
2018-01-12T19:10:06.253Z,1014.8046
2018-01-12T19:11:06.253Z,1014.825
2018-01-12T19:12:06.249Z,1014.8702
2018-01-12T19:13:06.245Z,1014.8855
2018-01-12T19:14:06.277Z,1014.8954
